sensor_id;sensor_type;location;lat;lon;timestamp;temperature;humidity
3086;DHT22;52812;48.960;9.108;2024-01-16T00:00:51;-1.00;99.90
3086;DHT22;52812;48.960;9.108;2024-01-16T00:03:17;-1.10;99.90
3086;DHT22;52812;48.960;9.108;2024-01-16T00:05:42;-1.10;99.90
3086;DHT22;52812;48.960;9.108;2024-01-16T00:08:08;-1.20;99.90
3086;DHT22;52812;48.960;9.108;2024-01-16T00:10:33;-1.20;99.90
3086;DHT22;52812;48.960;9.108;2024-01-16T00:12:59;-1.40;99.90
3086;DHT22;52812;48.960;9.108;2024-01-16T00:15:25;-1.40;99.90
3086;DHT22;52812;48.960;9.108;2024-01-16T00:17:50;-1.40;99.90
3086;DHT22;52812;48.960;9.108;2024-01-16T00:20:16;-1.40;99.90
3086;DHT22;52812;48.960;9.108;2024-01-16T00:22:42;-1.40;99.90
3086;DHT22;52812;48.960;9.108;2024-01-16T00:25:08;-1.50;99.90
3086;DHT22;52812;48.960;9.108;2024-01-16T00:27:33;-1.50;99.90
3086;DHT22;52812;48.960;9.108;2024-01-16T00:29:59;-1.50;99.90
3086;DHT22;52812;48.960;9.108;2024-01-16T00:32:25;-1.40;99.90
3086;DHT22;52812;48.960;9.108;2024-01-16T00:34:50;-1.40;99.90
3086;DHT22;52812;48.960;9.108;2024-01-16T00:37:16;-1.40;99.90
3086;DHT22;52812;48.960;9.108;2024-01-16T00:39:42;-1.30;99.90
3086;DHT22;52812;48.960;9.108;2024-01-16T00:42:08;-1.30;99.90
3086;DHT22;52812;48.960;9.108;2024-01-16T00:44:34;-1.40;99.90
3086;DHT22;52812;48.960;9.108;2024-01-16T00:47:00;-1.40;99.90
3086;DHT22;52812;48.960;9.108;2024-01-16T00:49:27;-1.40;99.90
3086;DHT22;52812;48.960;9.108;2024-01-16T00:51:53;-1.40;99.90
3086;DHT22;52812;48.960;9.108;2024-01-16T00:54:19;-1.40;99.90
3086;DHT22;52812;48.960;9.108;2024-01-16T00:56:44;-1.50;99.90
3086;DHT22;52812;48.960;9.108;2024-01-16T00:59:10;-1.50;99.90
3086;DHT22;52812;48.960;9.108;2024-01-16T01:01:39;-1.50;99.90
3086;DHT22;52812;48.960;9.108;2024-01-16T01:04:04;-1.50;99.90
3086;DHT22;52812;48.960;9.108;2024-01-16T01:06:30;-1.50;99.90
3086;DHT22;52812;48.960;9.108;2024-01-16T01:08:56;-1.50;99.90
3086;DHT22;52812;48.960;9.108;2024-01-16T01:11:21;-1.60;99.90
3086;DHT22;52812;48.960;9.108;2024-01-16T01:13:47;-1.60;99.90
3086;DHT22;52812;48.960;9.108;2024-01-16T01:16:12;-1.60;99.90
3086;DHT22;52812;48.960;9.108;2024-01-16T01:18:38;-1.60;99.90
3086;DHT22;52812;48.960;9.108;2024-01-16T01:21:04;-1.60;99.90
3086;DHT22;52812;48.960;9.108;2024-01-16T01:23:29;-1.60;99.90
3086;DHT22;52812;48.960;9.108;2024-01-16T01:25:55;-1.60;99.90
3086;DHT22;52812;48.960;9.108;2024-01-16T01:28:21;-1.50;99.90
3086;DHT22;52812;48.960;9.108;2024-01-16T01:30:46;-1.60;99.90
3086;DHT22;52812;48.960;9.108;2024-01-16T01:33:12;-1.70;99.90
3086;DHT22;52812;48.960;9.108;2024-01-16T01:35:38;-1.70;99.90
3086;DHT22;52812;48.960;9.108;2024-01-16T01:38:03;-1.70;99.90
3086;DHT22;52812;48.960;9.108;2024-01-16T01:40:29;-1.60;99.90
3086;DHT22;52812;48.960;9.108;2024-01-16T01:42:55;-1.50;99.90
3086;DHT22;52812;48.960;9.108;2024-01-16T01:45:20;-1.50;99.90
3086;DHT22;52812;48.960;9.108;2024-01-16T01:47:46;-1.50;99.90
3086;DHT22;52812;48.960;9.108;2024-01-16T01:50:13;-1.50;99.90
3086;DHT22;52812;48.960;9.108;2024-01-16T01:52:40;-1.50;99.90
3086;DHT22;52812;48.960;9.108;2024-01-16T01:55:10;-1.40;99.90
3086;DHT22;52812;48.960;9.108;2024-01-16T01:57:36;-1.50;99.90
3086;DHT22;52812;48.960;9.108;2024-01-16T02:00:02;-1.50;99.90
3086;DHT22;52812;48.960;9.108;2024-01-16T02:02:29;-1.40;99.90
3086;DHT22;52812;48.960;9.108;2024-01-16T02:04:56;-1.40;99.90
3086;DHT22;52812;48.960;9.108;2024-01-16T02:07:22;-1.30;99.90
3086;DHT22;52812;48.960;9.108;2024-01-16T02:09:48;-1.30;99.90
3086;DHT22;52812;48.960;9.108;2024-01-16T02:12:17;-1.30;99.90
3086;DHT22;52812;48.960;9.108;2024-01-16T02:14:43;-1.20;99.90
3086;DHT22;52812;48.960;9.108;2024-01-16T02:17:08;-1.30;99.90
3086;DHT22;52812;48.960;9.108;2024-01-16T02:19:34;-1.30;99.90
3086;DHT22;52812;48.960;9.108;2024-01-16T02:22:00;-1.30;99.90
3086;DHT22;52812;48.960;9.108;2024-01-16T02:24:29;-1.40;99.90
3086;DHT22;52812;48.960;9.108;2024-01-16T02:26:55;-1.40;99.90
3086;DHT22;52812;48.960;9.108;2024-01-16T02:29:21;-1.50;99.90
3086;DHT22;52812;48.960;9.108;2024-01-16T02:31:47;-1.50;99.90
3086;DHT22;52812;48.960;9.108;2024-01-16T02:34:12;-1.60;99.90
3086;DHT22;52812;48.960;9.108;2024-01-16T02:36:38;-1.60;99.90
3086;DHT22;52812;48.960;9.108;2024-01-16T02:39:04;-1.60;99.90
3086;DHT22;52812;48.960;9.108;2024-01-16T02:41:31;-1.70;99.90
3086;DHT22;52812;48.960;9.108;2024-01-16T02:43:57;-1.70;99.90
3086;DHT22;52812;48.960;9.108;2024-01-16T02:46:23;-1.80;99.90
3086;DHT22;52812;48.960;9.108;2024-01-16T02:48:48;-1.90;99.90
3086;DHT22;52812;48.960;9.108;2024-01-16T02:51:14;-1.90;99.90
3086;DHT22;52812;48.960;9.108;2024-01-16T02:53:41;-1.90;99.90
3086;DHT22;52812;48.960;9.108;2024-01-16T02:56:08;-1.90;99.90
3086;DHT22;52812;48.960;9.108;2024-01-16T02:58:34;-2.00;99.90
3086;DHT22;52812;48.960;9.108;2024-01-16T03:01:00;-2.10;99.90
3086;DHT22;52812;48.960;9.108;2024-01-16T03:03:26;-2.30;99.90
3086;DHT22;52812;48.960;9.108;2024-01-16T03:05:52;-2.40;99.90
3086;DHT22;52812;48.960;9.108;2024-01-16T03:08:17;-2.50;99.90
3086;DHT22;52812;48.960;9.108;2024-01-16T03:10:49;-2.50;99.90
3086;DHT22;52812;48.960;9.108;2024-01-16T03:13:15;-2.60;99.90
3086;DHT22;52812;48.960;9.108;2024-01-16T03:15:40;-2.60;99.90
3086;DHT22;52812;48.960;9.108;2024-01-16T03:18:06;-2.60;99.90
3086;DHT22;52812;48.960;9.108;2024-01-16T03:20:32;-2.50;99.90
3086;DHT22;52812;48.960;9.108;2024-01-16T03:22:58;-2.60;99.90
3086;DHT22;52812;48.960;9.108;2024-01-16T03:25:23;-2.50;99.90
3086;DHT22;52812;48.960;9.108;2024-01-16T03:27:49;-2.50;99.90
3086;DHT22;52812;48.960;9.108;2024-01-16T03:30:15;-2.50;99.90
3086;DHT22;52812;48.960;9.108;2024-01-16T03:32:43;-2.50;99.90
3086;DHT22;52812;48.960;9.108;2024-01-16T03:35:09;-2.50;99.90
3086;DHT22;52812;48.960;9.108;2024-01-16T03:37:35;-2.40;99.90
3086;DHT22;52812;48.960;9.108;2024-01-16T03:40:01;-2.50;99.90
3086;DHT22;52812;48.960;9.108;2024-01-16T03:42:27;-2.50;99.90
3086;DHT22;52812;48.960;9.108;2024-01-16T03:44:53;-2.40;99.90
3086;DHT22;52812;48.960;9.108;2024-01-16T03:47:19;-2.50;99.90
3086;DHT22;52812;48.960;9.108;2024-01-16T03:49:45;-2.50;99.90
3086;DHT22;52812;48.960;9.108;2024-01-16T03:52:10;-2.50;99.90
3086;DHT22;52812;48.960;9.108;2024-01-16T03:54:36;-2.50;99.90
3086;DHT22;52812;48.960;9.108;2024-01-16T03:57:02;-2.50;99.90
3086;DHT22;52812;48.960;9.108;2024-01-16T03:59:27;-2.60;99.90
3086;DHT22;52812;48.960;9.108;2024-01-16T04:01:53;-2.70;99.90
3086;DHT22;52812;48.960;9.108;2024-01-16T04:04:19;-2.90;99.90
3086;DHT22;52812;48.960;9.108;2024-01-16T04:06:46;-3.00;99.90
3086;DHT22;52812;48.960;9.108;2024-01-16T04:09:11;-3.10;99.90
3086;DHT22;52812;48.960;9.108;2024-01-16T04:11:37;-3.10;99.90
3086;DHT22;52812;48.960;9.108;2024-01-16T04:14:03;-3.20;99.90
3086;DHT22;52812;48.960;9.108;2024-01-16T04:16:29;-3.30;99.90
3086;DHT22;52812;48.960;9.108;2024-01-16T04:18:54;-3.30;99.90
3086;DHT22;52812;48.960;9.108;2024-01-16T04:21:20;-3.40;99.90
3086;DHT22;52812;48.960;9.108;2024-01-16T04:23:46;-3.40;99.90
3086;DHT22;52812;48.960;9.108;2024-01-16T04:26:12;-3.40;99.90
3086;DHT22;52812;48.960;9.108;2024-01-16T04:28:37;-3.40;99.90
3086;DHT22;52812;48.960;9.108;2024-01-16T04:31:06;-3.60;99.90
3086;DHT22;52812;48.960;9.108;2024-01-16T04:33:32;-3.90;99.90
3086;DHT22;52812;48.960;9.108;2024-01-16T04:35:58;-4.00;99.90
3086;DHT22;52812;48.960;9.108;2024-01-16T04:38:23;-4.00;99.90
3086;DHT22;52812;48.960;9.108;2024-01-16T04:40:49;-4.10;99.90
3086;DHT22;52812;48.960;9.108;2024-01-16T04:43:15;-3.90;99.90
3086;DHT22;52812;48.960;9.108;2024-01-16T04:45:41;-3.90;99.90
3086;DHT22;52812;48.960;9.108;2024-01-16T04:48:06;-4.10;99.90
3086;DHT22;52812;48.960;9.108;2024-01-16T04:50:34;-4.10;99.90
3086;DHT22;52812;48.960;9.108;2024-01-16T04:53:00;-4.10;99.90
3086;DHT22;52812;48.960;9.108;2024-01-16T04:55:27;-4.10;99.90
3086;DHT22;52812;48.960;9.108;2024-01-16T04:57:53;-4.10;99.90
3086;DHT22;52812;48.960;9.108;2024-01-16T05:00:19;-4.20;99.90
3086;DHT22;52812;48.960;9.108;2024-01-16T05:02:45;-4.30;99.90
3086;DHT22;52812;48.960;9.108;2024-01-16T05:05:12;-4.20;99.90
3086;DHT22;52812;48.960;9.108;2024-01-16T05:07:38;-4.20;99.90
3086;DHT22;52812;48.960;9.108;2024-01-16T05:10:04;-4.20;99.90
3086;DHT22;52812;48.960;9.108;2024-01-16T05:12:30;-4.20;99.90
3086;DHT22;52812;48.960;9.108;2024-01-16T05:14:56;-4.00;99.90
3086;DHT22;52812;48.960;9.108;2024-01-16T05:17:21;-3.70;99.90
3086;DHT22;52812;48.960;9.108;2024-01-16T05:19:47;-3.60;99.90
3086;DHT22;52812;48.960;9.108;2024-01-16T05:22:12;-3.60;99.90
3086;DHT22;52812;48.960;9.108;2024-01-16T05:24:38;-3.60;99.90
3086;DHT22;52812;48.960;9.108;2024-01-16T05:27:04;-3.60;99.90
3086;DHT22;52812;48.960;9.108;2024-01-16T05:29:30;-3.70;99.90
3086;DHT22;52812;48.960;9.108;2024-01-16T05:31:56;-3.90;99.90
3086;DHT22;52812;48.960;9.108;2024-01-16T05:34:22;-4.30;99.90
3086;DHT22;52812;48.960;9.108;2024-01-16T05:36:48;-4.60;99.90
3086;DHT22;52812;48.960;9.108;2024-01-16T05:39:13;-4.70;99.90
3086;DHT22;52812;48.960;9.108;2024-01-16T05:41:40;-4.70;99.90
3086;DHT22;52812;48.960;9.108;2024-01-16T05:44:06;-4.80;99.90
3086;DHT22;52812;48.960;9.108;2024-01-16T05:46:32;-4.80;99.90
3086;DHT22;52812;48.960;9.108;2024-01-16T05:48:58;-4.80;99.90
3086;DHT22;52812;48.960;9.108;2024-01-16T05:51:26;-4.70;99.90
3086;DHT22;52812;48.960;9.108;2024-01-16T05:53:52;-4.50;99.90
3086;DHT22;52812;48.960;9.108;2024-01-16T05:56:18;-4.40;99.90
3086;DHT22;52812;48.960;9.108;2024-01-16T05:58:43;-4.30;99.90
3086;DHT22;52812;48.960;9.108;2024-01-16T06:01:09;-4.30;99.90
3086;DHT22;52812;48.960;9.108;2024-01-16T06:03:34;-4.30;99.90
3086;DHT22;52812;48.960;9.108;2024-01-16T06:06:00;-4.20;99.90
3086;DHT22;52812;48.960;9.108;2024-01-16T06:08:26;-4.20;99.90
3086;DHT22;52812;48.960;9.108;2024-01-16T06:10:51;-4.20;99.90
3086;DHT22;52812;48.960;9.108;2024-01-16T06:13:21;-4.20;99.90
3086;DHT22;52812;48.960;9.108;2024-01-16T06:15:47;-4.40;99.90
3086;DHT22;52812;48.960;9.108;2024-01-16T06:18:13;-4.40;99.90
3086;DHT22;52812;48.960;9.108;2024-01-16T06:20:38;-4.30;99.90
3086;DHT22;52812;48.960;9.108;2024-01-16T06:23:04;-4.30;99.90
3086;DHT22;52812;48.960;9.108;2024-01-16T06:25:30;-4.40;99.90
3086;DHT22;52812;48.960;9.108;2024-01-16T06:27:55;-4.40;99.90
3086;DHT22;52812;48.960;9.108;2024-01-16T06:30:22;-4.50;99.90
3086;DHT22;52812;48.960;9.108;2024-01-16T06:32:48;-4.50;99.90
3086;DHT22;52812;48.960;9.108;2024-01-16T06:35:15;-4.50;99.90
3086;DHT22;52812;48.960;9.108;2024-01-16T06:37:41;-4.50;99.90
3086;DHT22;52812;48.960;9.108;2024-01-16T06:40:07;-4.50;99.90
3086;DHT22;52812;48.960;9.108;2024-01-16T06:42:33;-4.50;99.90
3086;DHT22;52812;48.960;9.108;2024-01-16T06:44:58;-4.40;99.90
3086;DHT22;52812;48.960;9.108;2024-01-16T06:47:24;-4.40;99.90
3086;DHT22;52812;48.960;9.108;2024-01-16T06:49:50;-4.30;99.90
3086;DHT22;52812;48.960;9.108;2024-01-16T06:52:15;-4.30;99.90
3086;DHT22;52812;48.960;9.108;2024-01-16T06:54:41;-4.30;99.90
3086;DHT22;52812;48.960;9.108;2024-01-16T06:57:07;-4.30;99.90
3086;DHT22;52812;48.960;9.108;2024-01-16T06:59:32;-4.30;99.90
3086;DHT22;52812;48.960;9.108;2024-01-16T07:01:58;-4.20;99.90
3086;DHT22;52812;48.960;9.108;2024-01-16T07:04:24;-4.20;99.90
3086;DHT22;52812;48.960;9.108;2024-01-16T07:06:49;-4.20;99.90
3086;DHT22;52812;48.960;9.108;2024-01-16T07:09:15;-4.20;99.90
3086;DHT22;52812;48.960;9.108;2024-01-16T07:11:42;-4.10;99.90
3086;DHT22;52812;48.960;9.108;2024-01-16T07:14:09;-4.00;99.90
3086;DHT22;52812;48.960;9.108;2024-01-16T07:16:35;-3.90;99.90
3086;DHT22;52812;48.960;9.108;2024-01-16T07:19:01;-3.90;99.90
3086;DHT22;52812;48.960;9.108;2024-01-16T07:21:27;-3.80;99.90
3086;DHT22;52812;48.960;9.108;2024-01-16T07:23:54;-3.80;99.90
3086;DHT22;52812;48.960;9.108;2024-01-16T07:26:20;-3.80;99.90
3086;DHT22;52812;48.960;9.108;2024-01-16T07:28:46;-3.80;99.90
3086;DHT22;52812;48.960;9.108;2024-01-16T07:31:14;-3.80;99.90
3086;DHT22;52812;48.960;9.108;2024-01-16T07:33:39;-3.70;99.90
3086;DHT22;52812;48.960;9.108;2024-01-16T07:36:07;-3.70;99.90
3086;DHT22;52812;48.960;9.108;2024-01-16T07:38:33;-3.60;99.90
3086;DHT22;52812;48.960;9.108;2024-01-16T07:40:59;-3.60;99.90
3086;DHT22;52812;48.960;9.108;2024-01-16T07:43:25;-3.60;99.90
3086;DHT22;52812;48.960;9.108;2024-01-16T07:45:50;-3.50;99.90
3086;DHT22;52812;48.960;9.108;2024-01-16T07:48:16;-3.50;99.90
3086;DHT22;52812;48.960;9.108;2024-01-16T07:50:42;-3.50;99.90
3086;DHT22;52812;48.960;9.108;2024-01-16T07:53:07;-3.50;99.90
3086;DHT22;52812;48.960;9.108;2024-01-16T07:55:33;-3.40;99.90
3086;DHT22;52812;48.960;9.108;2024-01-16T07:57:59;-3.40;99.90
3086;DHT22;52812;48.960;9.108;2024-01-16T08:00:24;-3.40;99.90
3086;DHT22;52812;48.960;9.108;2024-01-16T08:02:50;-3.40;99.90
3086;DHT22;52812;48.960;9.108;2024-01-16T08:05:15;-3.30;99.90
3086;DHT22;52812;48.960;9.108;2024-01-16T08:07:44;-3.20;99.90
3086;DHT22;52812;48.960;9.108;2024-01-16T08:10:10;-3.00;99.90
3086;DHT22;52812;48.960;9.108;2024-01-16T08:12:36;-2.90;99.90
3086;DHT22;52812;48.960;9.108;2024-01-16T08:15:03;-2.80;99.90
3086;DHT22;52812;48.960;9.108;2024-01-16T08:17:29;-2.70;99.90
3086;DHT22;52812;48.960;9.108;2024-01-16T08:19:55;-2.70;99.90
3086;DHT22;52812;48.960;9.108;2024-01-16T08:22:20;-2.60;99.90
3086;DHT22;52812;48.960;9.108;2024-01-16T08:24:46;-2.70;99.90
3086;DHT22;52812;48.960;9.108;2024-01-16T08:27:12;-2.70;99.90
3086;DHT22;52812;48.960;9.108;2024-01-16T08:29:37;-2.70;99.90
3086;DHT22;52812;48.960;9.108;2024-01-16T08:32:03;-2.60;99.90
3086;DHT22;52812;48.960;9.108;2024-01-16T08:34:29;-2.50;99.90
3086;DHT22;52812;48.960;9.108;2024-01-16T08:36:55;-2.40;99.90
3086;DHT22;52812;48.960;9.108;2024-01-16T08:39:22;-2.40;99.90
3086;DHT22;52812;48.960;9.108;2024-01-16T08:41:49;-2.40;99.90
3086;DHT22;52812;48.960;9.108;2024-01-16T08:44:15;-2.40;99.90
3086;DHT22;52812;48.960;9.108;2024-01-16T08:46:41;-2.30;99.90
3086;DHT22;52812;48.960;9.108;2024-01-16T08:49:06;-2.20;99.90
3086;DHT22;52812;48.960;9.108;2024-01-16T08:51:32;-2.10;99.90
3086;DHT22;52812;48.960;9.108;2024-01-16T08:53:57;-2.00;99.90
3086;DHT22;52812;48.960;9.108;2024-01-16T08:56:24;-1.90;99.90
3086;DHT22;52812;48.960;9.108;2024-01-16T08:58:53;-1.80;99.90
3086;DHT22;52812;48.960;9.108;2024-01-16T09:01:18;-1.70;99.90
3086;DHT22;52812;48.960;9.108;2024-01-16T09:03:46;-1.60;99.90
3086;DHT22;52812;48.960;9.108;2024-01-16T09:06:12;-1.50;99.90
3086;DHT22;52812;48.960;9.108;2024-01-16T09:08:38;-1.40;99.90
3086;DHT22;52812;48.960;9.108;2024-01-16T09:11:04;-1.30;99.90
3086;DHT22;52812;48.960;9.108;2024-01-16T09:13:29;-1.30;99.90
3086;DHT22;52812;48.960;9.108;2024-01-16T09:15:55;-1.30;99.90
3086;DHT22;52812;48.960;9.108;2024-01-16T09:18:20;-1.30;99.90
3086;DHT22;52812;48.960;9.108;2024-01-16T09:20:46;-1.30;99.90
3086;DHT22;52812;48.960;9.108;2024-01-16T09:23:12;-1.20;99.90
3086;DHT22;52812;48.960;9.108;2024-01-16T09:25:38;-1.20;99.90
3086;DHT22;52812;48.960;9.108;2024-01-16T09:28:04;-1.00;99.90
3086;DHT22;52812;48.960;9.108;2024-01-16T09:30:29;-0.90;99.90
3086;DHT22;52812;48.960;9.108;2024-01-16T09:32:55;-0.90;99.90
3086;DHT22;52812;48.960;9.108;2024-01-16T09:35:20;-0.80;99.90
3086;DHT22;52812;48.960;9.108;2024-01-16T09:37:47;-0.80;99.90
3086;DHT22;52812;48.960;9.108;2024-01-16T09:40:13;-0.60;99.90
3086;DHT22;52812;48.960;9.108;2024-01-16T09:42:39;-0.60;99.90
3086;DHT22;52812;48.960;9.108;2024-01-16T09:45:07;-0.50;99.90
3086;DHT22;52812;48.960;9.108;2024-01-16T09:47:34;-0.40;99.90
3086;DHT22;52812;48.960;9.108;2024-01-16T09:50:02;-0.40;99.90
3086;DHT22;52812;48.960;9.108;2024-01-16T09:52:28;-0.30;99.90
3086;DHT22;52812;48.960;9.108;2024-01-16T09:54:54;-0.30;99.90
3086;DHT22;52812;48.960;9.108;2024-01-16T09:57:25;-0.10;99.90
3086;DHT22;52812;48.960;9.108;2024-01-16T09:59:51;0.00;99.90
3086;DHT22;52812;48.960;9.108;2024-01-16T10:02:19;0.10;99.90
3086;DHT22;52812;48.960;9.108;2024-01-16T10:04:44;0.10;99.90
3086;DHT22;52812;48.960;9.108;2024-01-16T10:07:12;0.20;99.90
3086;DHT22;52812;48.960;9.108;2024-01-16T10:09:38;0.30;99.90
3086;DHT22;52812;48.960;9.108;2024-01-16T10:12:08;0.30;99.90
3086;DHT22;52812;48.960;9.108;2024-01-16T10:14:36;0.30;99.90
3086;DHT22;52812;48.960;9.108;2024-01-16T10:17:04;0.50;99.90
3086;DHT22;52812;48.960;9.108;2024-01-16T10:19:49;0.50;99.90
3086;DHT22;52812;48.960;9.108;2024-01-16T10:22:20;0.40;99.90
3086;DHT22;52812;48.960;9.108;2024-01-16T10:24:46;0.40;99.90
3086;DHT22;52812;48.960;9.108;2024-01-16T10:27:15;0.40;99.90
3086;DHT22;52812;48.960;9.108;2024-01-16T10:29:56;0.50;99.90
3086;DHT22;52812;48.960;9.108;2024-01-16T10:32:33;0.60;99.90
3086;DHT22;52812;48.960;9.108;2024-01-16T10:35:17;0.70;99.90
3086;DHT22;52812;48.960;9.108;2024-01-16T10:37:49;0.90;99.90
3086;DHT22;52812;48.960;9.108;2024-01-16T10:42:42;1.30;99.90
3086;DHT22;52812;48.960;9.108;2024-01-16T10:45:08;1.40;99.90
3086;DHT22;52812;48.960;9.108;2024-01-16T10:47:41;1.20;99.90
3086;DHT22;52812;48.960;9.108;2024-01-16T10:50:08;1.30;99.90
3086;DHT22;52812;48.960;9.108;2024-01-16T10:52:35;1.40;99.90
3086;DHT22;52812;48.960;9.108;2024-01-16T10:55:06;1.50;99.90
3086;DHT22;52812;48.960;9.108;2024-01-16T10:57:37;1.40;99.90
3086;DHT22;52812;48.960;9.108;2024-01-16T11:00:05;1.40;99.90
3086;DHT22;52812;48.960;9.108;2024-01-16T11:03:07;1.50;99.90
3086;DHT22;52812;48.960;9.108;2024-01-16T11:05:35;1.40;99.90
3086;DHT22;52812;48.960;9.108;2024-01-16T11:08:02;1.30;99.90
3086;DHT22;52812;48.960;9.108;2024-01-16T11:10:32;1.50;99.90
3086;DHT22;52812;48.960;9.108;2024-01-16T11:13:01;1.90;99.90
3086;DHT22;52812;48.960;9.108;2024-01-16T11:15:28;2.00;99.90
3086;DHT22;52812;48.960;9.108;2024-01-16T11:17:55;2.10;99.90
3086;DHT22;52812;48.960;9.108;2024-01-16T11:20:21;2.00;99.90
3086;DHT22;52812;48.960;9.108;2024-01-16T11:22:51;2.10;99.90
3086;DHT22;52812;48.960;9.108;2024-01-16T11:25:19;2.30;99.90
3086;DHT22;52812;48.960;9.108;2024-01-16T11:27:46;2.50;99.90
3086;DHT22;52812;48.960;9.108;2024-01-16T11:30:29;2.50;99.90
3086;DHT22;52812;48.960;9.108;2024-01-16T11:32:56;2.20;99.90
3086;DHT22;52812;48.960;9.108;2024-01-16T11:35:40;1.90;99.90
3086;DHT22;52812;48.960;9.108;2024-01-16T11:38:16;1.90;99.90
3086;DHT22;52812;48.960;9.108;2024-01-16T11:40:42;2.00;99.90
3086;DHT22;52812;48.960;9.108;2024-01-16T11:48:30;2.10;99.90
3086;DHT22;52812;48.960;9.108;2024-01-16T11:50:56;2.10;99.90
3086;DHT22;52812;48.960;9.108;2024-01-16T11:53:31;2.00;99.90
3086;DHT22;52812;48.960;9.108;2024-01-16T11:58:48;2.20;99.90
3086;DHT22;52812;48.960;9.108;2024-01-16T12:01:17;2.10;99.90
3086;DHT22;52812;48.960;9.108;2024-01-16T12:03:45;2.20;99.90
3086;DHT22;52812;48.960;9.108;2024-01-16T12:06:11;2.60;99.90
3086;DHT22;52812;48.960;9.108;2024-01-16T12:08:36;2.30;99.90
3086;DHT22;52812;48.960;9.108;2024-01-16T12:11:03;2.30;99.90
3086;DHT22;52812;48.960;9.108;2024-01-16T12:13:29;2.20;99.90
3086;DHT22;52812;48.960;9.108;2024-01-16T12:16:03;2.10;99.90
3086;DHT22;52812;48.960;9.108;2024-01-16T12:18:31;2.30;99.90
3086;DHT22;52812;48.960;9.108;2024-01-16T12:20:57;2.50;99.90
3086;DHT22;52812;48.960;9.108;2024-01-16T12:23:24;2.50;99.90
3086;DHT22;52812;48.960;9.108;2024-01-16T12:25:52;2.50;99.90
3086;DHT22;52812;48.960;9.108;2024-01-16T12:28:21;2.60;99.90
3086;DHT22;52812;48.960;9.108;2024-01-16T12:30:50;2.70;99.90
3086;DHT22;52812;48.960;9.108;2024-01-16T12:33:22;2.70;99.90
3086;DHT22;52812;48.960;9.108;2024-01-16T12:35:48;2.80;99.90
3086;DHT22;52812;48.960;9.108;2024-01-16T12:38:15;2.70;99.90
3086;DHT22;52812;48.960;9.108;2024-01-16T12:43:10;2.70;99.90
3086;DHT22;52812;48.960;9.108;2024-01-16T12:45:36;2.60;99.90
3086;DHT22;52812;48.960;9.108;2024-01-16T12:48:02;2.30;99.90
3086;DHT22;52812;48.960;9.108;2024-01-16T12:50:29;2.30;99.90
3086;DHT22;52812;48.960;9.108;2024-01-16T12:53:02;2.10;99.90
3086;DHT22;52812;48.960;9.108;2024-01-16T12:55:29;2.00;99.90
3086;DHT22;52812;48.960;9.108;2024-01-16T12:58:17;2.00;99.90
3086;DHT22;52812;48.960;9.108;2024-01-16T13:00:47;2.00;99.90
3086;DHT22;52812;48.960;9.108;2024-01-16T13:03:21;2.10;99.90
3086;DHT22;52812;48.960;9.108;2024-01-16T13:06:00;2.20;99.90
3086;DHT22;52812;48.960;9.108;2024-01-16T13:08:26;2.40;99.90
3086;DHT22;52812;48.960;9.108;2024-01-16T13:11:05;2.40;99.90
3086;DHT22;52812;48.960;9.108;2024-01-16T13:13:31;2.40;99.90
3086;DHT22;52812;48.960;9.108;2024-01-16T13:15:58;2.40;99.90
3086;DHT22;52812;48.960;9.108;2024-01-16T13:18:26;2.40;99.90
3086;DHT22;52812;48.960;9.108;2024-01-16T13:20:53;2.50;99.90
3086;DHT22;52812;48.960;9.108;2024-01-16T13:23:20;2.40;99.90
3086;DHT22;52812;48.960;9.108;2024-01-16T13:25:47;2.40;99.90
3086;DHT22;52812;48.960;9.108;2024-01-16T13:28:14;2.40;99.90
3086;DHT22;52812;48.960;9.108;2024-01-16T13:30:44;2.60;99.90
3086;DHT22;52812;48.960;9.108;2024-01-16T13:33:11;2.40;99.90
3086;DHT22;52812;48.960;9.108;2024-01-16T13:35:40;2.40;99.90
3086;DHT22;52812;48.960;9.108;2024-01-16T13:38:06;2.60;99.90
3086;DHT22;52812;48.960;9.108;2024-01-16T13:40:32;2.70;99.90
3086;DHT22;52812;48.960;9.108;2024-01-16T13:42:59;2.80;99.90
3086;DHT22;52812;48.960;9.108;2024-01-16T13:45:25;2.80;99.90
3086;DHT22;52812;48.960;9.108;2024-01-16T13:47:50;2.70;99.90
3086;DHT22;52812;48.960;9.108;2024-01-16T13:50:16;2.60;99.90
3086;DHT22;52812;48.960;9.108;2024-01-16T13:52:43;2.50;99.90
3086;DHT22;52812;48.960;9.108;2024-01-16T13:55:09;2.40;99.90
3086;DHT22;52812;48.960;9.108;2024-01-16T13:57:35;2.40;99.90
3086;DHT22;52812;48.960;9.108;2024-01-16T14:00:06;2.20;99.90
3086;DHT22;52812;48.960;9.108;2024-01-16T14:02:33;2.20;99.90
3086;DHT22;52812;48.960;9.108;2024-01-16T14:05:03;2.10;99.90
3086;DHT22;52812;48.960;9.108;2024-01-16T14:07:31;2.10;99.90
3086;DHT22;52812;48.960;9.108;2024-01-16T14:09:56;2.00;99.90
3086;DHT22;52812;48.960;9.108;2024-01-16T14:12:23;1.90;99.90
3086;DHT22;52812;48.960;9.108;2024-01-16T14:14:50;1.80;99.90
3086;DHT22;52812;48.960;9.108;2024-01-16T14:17:16;1.70;99.90
3086;DHT22;52812;48.960;9.108;2024-01-16T14:19:42;1.60;99.90
3086;DHT22;52812;48.960;9.108;2024-01-16T14:22:08;1.50;99.90
3086;DHT22;52812;48.960;9.108;2024-01-16T14:24:34;1.50;99.90
3086;DHT22;52812;48.960;9.108;2024-01-16T14:26:59;1.50;99.90
3086;DHT22;52812;48.960;9.108;2024-01-16T14:29:25;1.40;99.90
3086;DHT22;52812;48.960;9.108;2024-01-16T14:31:52;1.30;99.90
3086;DHT22;52812;48.960;9.108;2024-01-16T14:34:18;1.20;99.90
3086;DHT22;52812;48.960;9.108;2024-01-16T14:36:45;1.20;99.90
3086;DHT22;52812;48.960;9.108;2024-01-16T14:39:10;1.10;99.90
3086;DHT22;52812;48.960;9.108;2024-01-16T14:41:41;1.10;99.90
3086;DHT22;52812;48.960;9.108;2024-01-16T14:44:09;1.10;99.90
3086;DHT22;52812;48.960;9.108;2024-01-16T14:46:40;1.10;99.90
3086;DHT22;52812;48.960;9.108;2024-01-16T14:49:05;1.00;99.90
3086;DHT22;52812;48.960;9.108;2024-01-16T14:51:31;1.00;99.90
3086;DHT22;52812;48.960;9.108;2024-01-16T14:53:57;0.90;99.90
3086;DHT22;52812;48.960;9.108;2024-01-16T14:56:24;0.80;99.90
3086;DHT22;52812;48.960;9.108;2024-01-16T14:58:50;0.80;99.90
3086;DHT22;52812;48.960;9.108;2024-01-16T15:01:17;0.70;99.90
3086;DHT22;52812;48.960;9.108;2024-01-16T15:03:43;0.60;99.90
3086;DHT22;52812;48.960;9.108;2024-01-16T15:06:09;0.60;99.90
3086;DHT22;52812;48.960;9.108;2024-01-16T15:08:38;0.50;99.90
3086;DHT22;52812;48.960;9.108;2024-01-16T15:11:03;0.40;99.90
3086;DHT22;52812;48.960;9.108;2024-01-16T15:13:34;0.30;99.90
3086;DHT22;52812;48.960;9.108;2024-01-16T15:16:00;0.30;99.90
3086;DHT22;52812;48.960;9.108;2024-01-16T15:18:26;0.20;99.90
3086;DHT22;52812;48.960;9.108;2024-01-16T15:20:52;0.10;99.90
3086;DHT22;52812;48.960;9.108;2024-01-16T15:23:18;0.10;99.90
3086;DHT22;52812;48.960;9.108;2024-01-16T15:25:43;0.00;99.90
3086;DHT22;52812;48.960;9.108;2024-01-16T15:28:09;-0.10;99.90
3086;DHT22;52812;48.960;9.108;2024-01-16T15:30:35;-0.20;99.90
3086;DHT22;52812;48.960;9.108;2024-01-16T15:33:04;-0.40;99.90
3086;DHT22;52812;48.960;9.108;2024-01-16T15:35:31;-0.60;99.90
3086;DHT22;52812;48.960;9.108;2024-01-16T15:37:57;-0.80;99.90
3086;DHT22;52812;48.960;9.108;2024-01-16T15:40:23;-1.00;99.90
3086;DHT22;52812;48.960;9.108;2024-01-16T15:42:49;-1.10;99.90
3086;DHT22;52812;48.960;9.108;2024-01-16T15:45:15;-1.20;99.90
3086;DHT22;52812;48.960;9.108;2024-01-16T15:47:40;-1.40;99.90
3086;DHT22;52812;48.960;9.108;2024-01-16T15:50:08;-1.50;99.90
3086;DHT22;52812;48.960;9.108;2024-01-16T15:52:34;-1.60;99.90
3086;DHT22;52812;48.960;9.108;2024-01-16T15:55:00;-1.30;99.90
3086;DHT22;52812;48.960;9.108;2024-01-16T15:57:26;-1.10;99.90
3086;DHT22;52812;48.960;9.108;2024-01-16T15:59:52;-1.30;99.90
3086;DHT22;52812;48.960;9.108;2024-01-16T16:02:18;-1.30;99.90